Last 24 Hours

Squaw-Red Dog 6200'

Hourly Data | America/Los_Angeles
as of 12/15/19 11:28 AM PST
Date & Time Temp (°F) RH (%) Dew Pt (°F) Wet Bulb (°F) Wind Dir (°) Wind Spd (mph) Wind Gust (mph) Latest Rain (In) New Snow (in) SnowDepth (in) Daily Min Temp (°F) Daily Max Temp (°F) Daily Rain (In)
12/15/19 - 1100 26.0 80 20.6 24.2 SSW | 200 4.2 10.2 0.00 1.8 81.8 19.4 27.2 0.00
12/15/19 - 1000 25.4 81 20.4 23.8 SW | 232 2.0 6.5 0.00 2.0 80.5 19.4 27.2 0.00
12/15/19 - 0900 22.3 90 19.8 21.5 NW | 313 2.4 4.5 0.00 2.1 81.1 19.4 27.2 0.00
12/15/19 - 0800 20.1 96 19.2 19.8 SE | 136 0.9 3.3 0.00 2.1 16.9 19.4 27.2 0.00
12/15/19 - 0700 20.3 96 19.4 20.0 SSW | 202 1.3 6.4 0.00 2.2 81.4 20.3 27.2 0.00
12/15/19 - 0600 23.6 87 20.3 22.5 W | 280 1.2 9.0 0.00 2.4 81.8 21.1 27.2 0.00
12/15/19 - 0500 21.9 91 19.6 21.1 NW | 324 4.4 14.0 0.00 2.4 81.2 21.9 27.2 0.00
12/15/19 - 0400 24.2 80 19.0 22.5 N | 359 6.0 14.7 0.00 2.4 15.0 23.9 27.2 0.00
12/15/19 - 0300 24.6 87 21.3 23.4 NNW | 342 11.6 18.9 0.00 2.5 14.4 24.6 27.2 0.00
12/15/19 - 0200 25.3 88 22.2 24.2 NNW | 338 11.9 21.9 0.00 2.5 14.4 25.3 27.2 0.00
12/15/19 - 0100 26.2 92 24.3 25.4 NNW | 337 3.8 16.4 0.00 2.4 14.0 26.1 27.2 0.00
12/15/19 - 0000 26.1 96 25.2 25.7 N | 8 6.6 22.1 0.00 2.1 13.5 - - 0.00
12/14/19 - 2300 27.4 91 25.2 26.5 NNW | 345 10.5 19.2 0.00 2.1 13.0 - - 0.00
12/14/19 - 2200 27.3 91 25.1 26.5 N | 351 6.6 18.8 0.00 1.7 13.5 - - 0.00
12/14/19 - 2100 27.4 94 25.9 26.7 NNW | 343 3.5 11.0 0.00 0.9 13.0 - - 0.00
12/14/19 - 2000 27.1 96 26.1 26.6 NNW | 345 5.3 12.6 0.00 0.2 13.0 - - 0.00
12/14/19 - 1900 27.5 90 24.9 26.5 NNW | 343 5.3 14.3 0.00 0.2 12.9 - - 0.00
12/14/19 - 1800 28.9 84 24.6 27.3 NNW | 334 4.1 11.9 0.00 0.2 77.6 - - 0.00
12/14/19 - 1700 29.8 81 24.7 28.0 N | 350 5.2 11.5 0.00 0.2 77.3 - - 0.00
12/14/19 - 1600 31.7 70 23.1 28.7 NNW | 343 4.3 10.7 0.00 0.2 77.1 - - 0.00
12/14/19 - 1500 32.8 67 23.1 29.4 N | 1 6.0 13.3 0.00 0.2 78.5 - - 0.00
12/14/19 - 1400 33.9 68 24.5 30.5 N | 356 4.8 11.5 0.00 0.2 78.0 - - 0.00
12/14/19 - 1300 33.8 65 23.3 30.1 N | 0 4.6 14.0 0.00 0.1 77.8 - - 0.00
12/14/19 - 1200 32.4 65 21.8 28.8 NNW | 346 4.9 15.5 0.00 0.2 78.4 - - 0.00
12/14/19 - 1100 32.3 62 20.8 28.4 NW | 326 4.0 13.0 0.00 0.1 77.4 - - 0.00
Max 33.9 96 26.1 30.5 - 11.9 22.1 0.00 2.5 81.8 26.1 27.2 0.00
Avg 27.1 84 22.6 25.5 - 5.0 13.0 0.00 1.4 50.5 - - -
Min 20.1 62 19.0 19.8 - 0.9 3.3 0.00 0.1 12.9 19.4 27.2 0.00
Total - - - - - - - 0.00 - - - - -